Time,TemperatureF,DewpointF,PressureIn,WindDirection,WindDirectionDegrees,WindSpeedMPH,WindSpeedGustMPH,Humidity,HourlyPrecipIn,Conditions,Clouds,dailyrainin,SoftwareType,DateUTC
2013-05-09 00:01:00,59.0,54.2,29.99,West,270,1.6,1.6,84,0.01,,,0.00,WUHU216HW,2013-05-09 04:01:00,
2013-05-09 00:06:00,58.9,54.0,29.99,West,270,0.4,1.8,84,0.01,,,0.00,WUHU216HW,2013-05-09 04:06:00,
2013-05-09 00:11:00,58.9,54.0,29.99,SSW,203,0.0,1.8,84,0.00,,,0.00,WUHU216HW,2013-05-09 04:11:00,
2013-05-09 00:16:00,58.9,54.0,29.99,SSW,203,0.0,0.4,84,0.00,,,0.00,WUHU216HW,2013-05-09 04:16:00,
2013-05-09 00:21:00,58.9,54.0,29.99,WSW,248,0.9,1.6,84,0.00,,,0.00,WUHU216HW,2013-05-09 04:21:00,
2013-05-09 00:26:00,58.7,53.8,29.98,WSW,248,0.0,1.6,84,0.00,,,0.00,WUHU216HW,2013-05-09 04:26:00,
2013-05-09 00:31:00,58.7,54.2,29.98,West,270,0.0,1.6,85,0.00,,,0.00,WUHU216HW,2013-05-09 04:31:00,
2013-05-09 00:36:00,58.7,53.8,29.97,WSW,248,0.0,0.4,84,0.00,,,0.00,WUHU216HW,2013-05-09 04:36:00,
2013-05-09 00:41:00,58.5,53.6,29.97,WSW,248,0.0,0.0,84,0.00,,,0.00,WUHU216HW,2013-05-09 04:41:00,
2013-05-09 00:46:00,58.3,53.5,29.97,WSW,248,0.9,1.1,84,0.00,,,0.00,WUHU216HW,2013-05-09 04:46:00,
2013-05-09 00:51:00,58.1,53.3,29.97,NW,315,0.0,1.8,84,0.00,,,0.00,WUHU216HW,2013-05-09 04:51:00,
2013-05-09 00:56:00,58.0,53.1,29.97,WNW,293,0.0,1.8,84,0.00,,,0.00,WUHU216HW,2013-05-09 04:56:00,
2013-05-09 01:01:00,58.0,53.1,29.96,WNW,293,0.0,0.0,84,0.00,,,0.00,WUHU216HW,2013-05-09 05:01:00,
2013-05-09 01:06:00,57.8,53.3,29.96,North,0,0.4,0.9,85,0.00,,,0.00,WUHU216HW,2013-05-09 05:06:00,
2013-05-09 01:11:00,57.6,53.1,29.96,NNW,338,0.0,0.9,85,0.00,,,0.00,WUHU216HW,2013-05-09 05:11:00,
2013-05-09 01:16:00,57.4,52.6,29.96,NNW,338,0.0,1.1,84,0.00,,,0.00,WUHU216HW,2013-05-09 05:16:00,
2013-05-09 01:21:00,57.2,52.4,29.96,NNW,338,0.0,1.1,84,0.00,,,0.00,WUHU216HW,2013-05-09 05:21:00,
2013-05-09 01:26:00,57.1,52.6,29.96,NW,315,0.0,1.1,85,0.00,,,0.00,WUHU216HW,2013-05-09 05:26:00,
2013-05-09 01:31:00,56.9,52.8,29.96,NNW,338,0.2,1.3,86,0.00,,,0.00,WUHU216HW,2013-05-09 05:31:00,
2013-05-09 01:36:00,56.7,52.2,29.95,East,90,0.0,1.3,85,0.00,,,0.00,WUHU216HW,2013-05-09 05:36:00,
2013-05-09 01:41:00,56.7,52.6,29.95,NNE,23,0.0,0.7,86,0.00,,,0.00,WUHU216HW,2013-05-09 05:41:00,
2013-05-09 01:46:00,56.7,52.2,29.95,NNE,23,0.0,0.4,85,0.00,,,0.00,WUHU216HW,2013-05-09 05:46:00,
2013-05-09 01:51:00,56.9,52.4,29.95,SE,135,0.4,1.3,85,0.00,,,0.00,WUHU216HW,2013-05-09 05:51:00,
2013-05-09 01:56:00,56.7,52.2,29.95,South,180,0.4,1.3,85,0.00,,,0.00,WUHU216HW,2013-05-09 05:56:00,
2013-05-09 02:01:00,56.7,52.2,29.95,West,270,1.1,1.1,85,0.00,,,0.00,WUHU216HW,2013-05-09 06:01:00,
2013-05-09 02:06:00,56.5,52.4,29.95,WSW,248,0.0,1.1,86,0.00,,,0.00,WUHU216HW,2013-05-09 06:06:00,
2013-05-09 02:11:00,56.5,52.4,29.94,WNW,293,0.0,1.6,86,0.00,,,0.00,WUHU216HW,2013-05-09 06:11:00,
2013-05-09 02:16:00,56.3,52.2,29.94,NNE,23,0.0,1.6,86,0.00,,,0.00,WUHU216HW,2013-05-09 06:16:00,
2013-05-09 02:21:00,56.2,52.0,29.94,WSW,248,1.1,1.3,86,0.00,,,0.00,WUHU216HW,2013-05-09 06:21:00,
2013-05-09 02:26:00,56.2,51.7,29.93,West,270,1.3,1.8,85,0.00,,,0.00,WUHU216HW,2013-05-09 06:26:00,
2013-05-09 02:31:00,56.2,51.7,29.93,WNW,293,1.8,2.2,85,0.00,,,0.00,WUHU216HW,2013-05-09 06:31:00,
2013-05-09 02:36:00,55.8,51.3,29.93,West,270,0.4,2.2,85,0.00,,,0.00,WUHU216HW,2013-05-09 06:36:00,
2013-05-09 02:41:00,55.6,51.5,29.93,SSE,158,1.1,1.8,86,0.00,,,0.00,WUHU216HW,2013-05-09 06:41:00,
2013-05-09 02:46:00,55.3,51.1,29.93,NW,315,1.1,1.3,86,0.00,,,0.00,WUHU216HW,2013-05-09 06:46:00,
2013-05-09 02:51:00,54.9,50.8,29.93,NW,315,0.0,1.3,86,0.00,,,0.00,WUHU216HW,2013-05-09 06:51:00,
2013-05-09 02:56:00,54.7,50.6,29.93,ENE,68,0.9,1.6,86,0.00,,,0.00,WUHU216HW,2013-05-09 06:56:00,
2013-05-09 03:01:00,54.7,50.9,29.93,NNE,23,1.6,1.8,87,0.00,,,0.00,WUHU216HW,2013-05-09 07:01:00,
2013-05-09 03:06:00,54.7,51.2,29.93,NNW,338,0.4,1.8,88,0.00,,,0.00,WUHU216HW,2013-05-09 07:06:00,
2013-05-09 03:11:00,54.7,50.9,29.93,WSW,248,1.3,2.5,87,0.00,,,0.00,WUHU216HW,2013-05-09 07:11:00,
2013-05-09 03:16:00,55.1,51.2,29.93,WSW,248,0.0,2.5,87,0.00,,,0.00,WUHU216HW,2013-05-09 07:16:00,
2013-05-09 03:21:00,55.1,51.2,29.92,ESE,113,0.0,1.8,87,0.00,,,0.00,WUHU216HW,2013-05-09 07:21:00,
2013-05-09 03:26:00,54.9,51.0,29.92,North,0,0.7,1.8,87,0.00,,,0.00,WUHU216HW,2013-05-09 07:26:00,
2013-05-09 03:31:00,54.7,50.9,29.92,WSW,248,2.0,2.2,87,0.00,,,0.00,WUHU216HW,2013-05-09 07:31:00,
2013-05-09 03:36:00,54.5,51.0,29.92,NNW,338,0.4,2.2,88,0.00,,,0.00,WUHU216HW,2013-05-09 07:36:00,
2013-05-09 03:41:00,54.4,50.6,29.92,NNW,338,0.7,2.0,87,0.00,,,0.00,WUHU216HW,2013-05-09 07:41:00,
2013-05-09 03:46:00,54.4,50.6,29.92,SSE,158,0.0,1.1,87,0.00,,,0.00,WUHU216HW,2013-05-09 07:46:00,
2013-05-09 03:51:00,54.4,50.6,29.92,NNE,23,0.0,1.1,87,0.00,,,0.00,WUHU216HW,2013-05-09 07:51:00,
2013-05-09 03:56:00,54.5,50.8,29.91,West,270,1.3,1.3,87,0.00,,,0.00,WUHU216HW,2013-05-09 07:56:00,
2013-05-09 04:01:00,54.9,51.0,29.91,WSW,248,2.5,2.9,87,0.00,,,0.00,WUHU216HW,2013-05-09 08:01:00,
2013-05-09 04:06:00,55.1,51.2,29.91,North,0,0.7,2.9,87,0.00,,,0.00,WUHU216HW,2013-05-09 08:06:00,
2013-05-09 04:11:00,55.1,51.2,29.91,East,90,0.0,2.5,87,0.00,,,0.00,WUHU216HW,2013-05-09 08:11:00,
2013-05-09 04:16:00,55.1,51.2,29.91,NW,315,0.4,1.8,87,0.00,,,0.00,WUHU216HW,2013-05-09 08:16:00,
2013-05-09 04:21:00,55.1,51.6,29.91,West,270,1.1,1.8,88,0.00,,,0.00,WUHU216HW,2013-05-09 08:21:00,
2013-05-09 04:26:00,55.4,51.9,29.91,WSW,248,0.9,1.6,88,0.00,,,0.00,WUHU216HW,2013-05-09 08:26:00,
2013-05-09 04:31:00,55.4,51.6,29.91,WSW,248,1.6,1.6,87,0.00,,,0.00,WUHU216HW,2013-05-09 08:31:00,
2013-05-09 04:36:00,55.6,51.8,29.91,WSW,248,1.3,2.0,87,0.00,,,0.00,WUHU216HW,2013-05-09 08:36:00,
2013-05-09 04:41:00,55.8,52.3,29.91,SW,225,1.1,2.0,88,0.00,,,0.00,WUHU216HW,2013-05-09 08:41:00,
2013-05-09 04:46:00,56.0,52.5,29.91,SW,225,1.3,1.6,88,0.00,,,0.00,WUHU216HW,2013-05-09 08:46:00,
2013-05-09 04:51:00,56.2,52.7,29.91,SW,225,0.9,1.6,88,0.01,,,0.01,WUHU216HW,2013-05-09 08:51:00,
2013-05-09 04:56:00,56.3,52.8,29.92,WSW,248,0.4,1.6,88,0.01,,,0.01,WUHU216HW,2013-05-09 08:56:00,
2013-05-09 05:01:00,56.3,52.8,29.91,WSW,248,0.0,1.1,88,0.01,,,0.01,WUHU216HW,2013-05-09 09:01:00,
2013-05-09 05:06:00,56.3,52.8,29.91,East,90,1.3,1.3,88,0.02,,,0.02,WUHU216HW,2013-05-09 09:06:00,
2013-05-09 05:11:00,56.2,52.9,29.91,NE,45,1.8,1.8,89,0.03,,,0.03,WUHU216HW,2013-05-09 09:11:00,
2013-05-09 05:16:00,56.2,52.9,29.91,NNE,23,0.2,1.8,89,0.04,,,0.04,WUHU216HW,2013-05-09 09:16:00,
2013-05-09 05:21:00,56.2,52.9,29.91,NNE,23,0.0,1.8,89,0.05,,,0.05,WUHU216HW,2013-05-09 09:21:00,
2013-05-09 05:26:00,56.2,52.9,29.91,North,0,0.0,0.0,89,0.06,,,0.06,WUHU216HW,2013-05-09 09:26:00,
2013-05-09 05:31:00,56.2,52.7,29.92,NW,315,0.0,0.0,88,0.07,,,0.07,WUHU216HW,2013-05-09 09:31:00,
2013-05-09 05:36:00,56.2,52.7,29.92,WNW,293,0.0,0.0,88,0.08,,,0.08,WUHU216HW,2013-05-09 09:36:00,
2013-05-09 05:41:00,56.0,52.5,29.92,WNW,293,0.0,0.0,88,0.09,,,0.09,WUHU216HW,2013-05-09 09:41:00,
2013-05-09 05:46:00,55.8,52.3,29.91,North,0,0.4,0.4,88,0.09,,,0.10,WUHU216HW,2013-05-09 09:46:00,
2013-05-09 05:51:00,55.8,52.6,29.91,North,0,0.4,1.3,89,0.11,,,0.12,WUHU216HW,2013-05-09 09:51:00,
2013-05-09 05:56:00,55.8,52.6,29.91,NNE,23,1.6,1.6,89,0.12,,,0.13,WUHU216HW,2013-05-09 09:56:00,
2013-05-09 06:01:00,55.8,52.9,29.90,ENE,68,1.1,2.0,90,0.13,,,0.14,WUHU216HW,2013-05-09 10:01:00,
2013-05-09 06:06:00,56.0,53.4,29.90,NE,45,0.7,2.5,91,0.12,,,0.14,WUHU216HW,2013-05-09 10:06:00,
2013-05-09 06:11:00,55.8,52.9,29.90,NNW,338,1.1,2.5,90,0.12,,,0.15,WUHU216HW,2013-05-09 10:11:00,
2013-05-09 06:16:00,55.8,52.9,29.91,SSW,203,0.9,1.1,90,0.12,,,0.16,WUHU216HW,2013-05-09 10:16:00,
2013-05-09 06:21:00,55.8,52.9,29.91,NW,315,1.1,1.3,90,0.12,,,0.17,WUHU216HW,2013-05-09 10:21:00,
2013-05-09 06:26:00,55.8,52.9,29.91,NW,315,0.0,1.3,90,0.11,,,0.17,WUHU216HW,2013-05-09 10:26:00,
2013-05-09 06:31:00,55.8,52.6,29.90,West,270,1.1,1.6,89,0.10,,,0.17,WUHU216HW,2013-05-09 10:31:00,
2013-05-09 06:36:00,56.0,52.7,29.90,WSW,248,0.4,1.6,89,0.09,,,0.17,WUHU216HW,2013-05-09 10:36:00,
2013-05-09 06:41:00,56.2,52.9,29.90,SW,225,0.9,1.8,89,0.08,,,0.17,WUHU216HW,2013-05-09 10:41:00,
2013-05-09 06:46:00,56.3,53.1,29.90,WSW,248,0.4,1.8,89,0.07,,,0.17,WUHU216HW,2013-05-09 10:46:00,
2013-05-09 06:51:00,56.7,53.5,29.90,WSW,248,0.0,1.6,89,0.05,,,0.17,WUHU216HW,2013-05-09 10:51:00,
2013-05-09 06:56:00,56.9,53.6,29.90,WSW,248,0.0,0.7,89,0.03,,,0.17,WUHU216HW,2013-05-09 10:56:00,
2013-05-09 07:01:00,57.2,54.0,29.90,WSW,248,0.4,0.7,89,0.03,,,0.17,WUHU216HW,2013-05-09 11:01:00,
2013-05-09 07:06:00,57.6,54.4,29.90,WSW,248,1.1,1.1,89,0.03,,,0.17,WUHU216HW,2013-05-09 11:06:00,
2013-05-09 07:11:00,58.0,54.7,29.90,WSW,248,1.1,1.3,89,0.02,,,0.17,WUHU216HW,2013-05-09 11:11:00,
2013-05-09 07:16:00,58.1,54.9,29.90,West,270,0.4,1.3,89,0.00,,,0.17,WUHU216HW,2013-05-09 11:16:00,
2013-05-09 07:21:00,58.7,55.4,29.90,SW,225,1.1,1.1,89,0.00,,,0.17,WUHU216HW,2013-05-09 11:21:00,
2013-05-09 07:26:00,59.0,55.8,29.90,SSW,203,1.1,1.8,89,0.00,,,0.17,WUHU216HW,2013-05-09 11:26:00,
2013-05-09 07:31:00,59.6,56.3,29.90,WSW,248,0.4,2.5,89,0.00,,,0.17,WUHU216HW,2013-05-09 11:31:00,
2013-05-09 07:36:00,60.1,56.9,29.90,NNW,338,0.7,2.5,89,0.00,,,0.17,WUHU216HW,2013-05-09 11:36:00,
2013-05-09 07:41:00,60.5,57.0,29.90,SSW,203,0.0,1.1,88,0.00,,,0.17,WUHU216HW,2013-05-09 11:41:00,
2013-05-09 07:46:00,60.3,56.4,29.90,North,0,0.2,1.1,87,0.00,,,0.17,WUHU216HW,2013-05-09 11:46:00,
2013-05-09 07:51:00,60.1,56.3,29.90,NW,315,0.4,1.1,87,0.00,,,0.17,WUHU216HW,2013-05-09 11:51:00,
2013-05-09 07:56:00,60.7,56.8,29.90,ENE,68,0.4,1.1,87,0.00,,,0.17,WUHU216HW,2013-05-09 11:56:00,
2013-05-09 08:01:00,60.8,57.0,29.90,SSE,158,1.3,1.8,87,0.00,,,0.17,WUHU216HW,2013-05-09 12:01:00,
2013-05-09 08:06:00,61.0,56.9,29.90,ESE,113,0.9,1.8,86,0.00,,,0.17,WUHU216HW,2013-05-09 12:06:00,
2013-05-09 08:11:00,61.4,56.9,29.90,ESE,113,0.4,2.5,85,0.00,,,0.17,WUHU216HW,2013-05-09 12:11:00,
2013-05-09 08:16:00,61.6,57.1,29.90,ESE,113,1.3,2.5,85,0.00,,,0.17,WUHU216HW,2013-05-09 12:16:00,
2013-05-09 08:21:00,61.7,56.9,29.90,South,180,2.0,2.5,84,0.00,,,0.17,WUHU216HW,2013-05-09 12:21:00,
2013-05-09 08:26:00,61.6,56.7,29.91,SE,135,3.1,3.8,84,0.00,,,0.17,WUHU216HW,2013-05-09 12:26:00,
2013-05-09 08:31:00,61.4,56.5,29.90,SSW,203,1.3,3.8,84,0.00,,,0.17,WUHU216HW,2013-05-09 12:31:00,
2013-05-09 08:36:00,61.4,56.5,29.91,SSW,203,1.8,3.6,84,0.00,,,0.17,WUHU216HW,2013-05-09 12:36:00,
2013-05-09 08:41:00,61.6,56.7,29.90,SE,135,0.9,2.7,84,0.00,,,0.17,WUHU216HW,2013-05-09 12:41:00,
2013-05-09 08:46:00,62.5,57.5,29.90,SSE,158,2.7,3.8,84,0.00,,,0.17,WUHU216HW,2013-05-09 12:46:00,
2013-05-09 08:52:00,63.4,58.4,29.91,ESE,113,2.9,4.0,84,0.00,,,0.17,WUHU216HW,2013-05-09 12:52:00,
2013-05-09 08:57:00,64.1,58.2,29.90,ENE,68,2.0,4.0,81,0.00,,,0.17,WUHU216HW,2013-05-09 12:57:00,
2013-05-09 09:02:00,63.9,57.6,29.90,ENE,68,2.0,2.9,80,0.00,,,0.17,WUHU216HW,2013-05-09 13:02:00,
2013-05-09 09:06:00,64.1,58.2,29.90,ENE,68,1.1,2.2,81,0.00,,,0.17,WUHU216HW,2013-05-09 13:06:00,
2013-05-09 09:12:00,64.8,58.9,29.90,East,90,1.1,2.2,81,0.00,,,0.17,WUHU216HW,2013-05-09 13:12:00,
2013-05-09 09:16:00,65.2,58.9,29.90,SSE,158,1.8,1.8,80,0.00,,,0.17,WUHU216HW,2013-05-09 13:16:00,
2013-05-09 09:22:00,65.5,58.5,29.90,NW,315,1.8,2.2,78,0.00,,,0.17,WUHU216HW,2013-05-09 13:22:00,
2013-05-09 09:27:00,64.1,57.8,29.89,West,270,2.5,3.4,80,0.00,,,0.17,WUHU216HW,2013-05-09 13:27:00,
2013-05-09 09:31:00,63.5,56.9,29.89,WNW,293,1.8,3.4,79,0.00,,,0.17,WUHU216HW,2013-05-09 13:31:00,
2013-05-09 09:36:00,63.5,56.9,29.89,NE,45,3.1,3.4,79,0.00,,,0.17,WUHU216HW,2013-05-09 13:36:00,
2013-05-09 09:41:00,64.1,57.4,29.89,East,90,2.9,3.4,79,0.00,,,0.17,WUHU216HW,2013-05-09 13:41:00,
2013-05-09 09:46:00,65.3,59.0,29.88,SSE,158,3.6,3.6,80,0.00,,,0.17,WUHU216HW,2013-05-09 13:46:00,
2013-05-09 09:51:00,67.0,60.0,29.89,South,180,2.2,3.6,78,0.00,,,0.17,WUHU216HW,2013-05-09 13:51:00,
2013-05-09 09:56:00,68.2,60.0,29.88,WSW,248,2.2,3.4,75,0.00,,,0.17,WUHU216HW,2013-05-09 13:56:00,
2013-05-09 10:01:00,68.4,59.8,29.88,WSW,248,3.6,3.6,74,0.00,,,0.17,WUHU216HW,2013-05-09 14:01:00,
2013-05-09 10:06:00,68.4,59.4,29.88,SSE,158,3.4,4.5,73,0.00,,,0.17,WUHU216HW,2013-05-09 14:06:00,
2013-05-09 10:11:00,69.7,59.8,29.88,SE,135,1.3,4.7,71,0.00,,,0.17,WUHU216HW,2013-05-09 14:11:00,
2013-05-09 10:16:00,69.5,58.9,29.88,ESE,113,3.4,4.7,69,0.00,,,0.17,WUHU216HW,2013-05-09 14:16:00,
2013-05-09 10:21:00,68.8,57.8,29.88,South,180,0.9,3.4,68,0.00,,,0.17,WUHU216HW,2013-05-09 14:21:00,
2013-05-09 10:26:00,68.8,58.6,29.88,WNW,293,1.6,3.4,70,0.00,,,0.17,WUHU216HW,2013-05-09 14:26:00,
2013-05-09 10:31:00,68.8,57.3,29.87,NE,45,3.4,5.6,67,0.00,,,0.17,WUHU216HW,2013-05-09 14:31:00,
2013-05-09 10:36:00,68.9,58.3,29.87,NE,45,0.4,5.6,69,0.00,,,0.17,WUHU216HW,2013-05-09 14:36:00,
2013-05-09 10:41:00,69.5,58.0,29.87,NE,45,4.3,4.3,67,0.00,,,0.17,WUHU216HW,2013-05-09 14:41:00,
2013-05-09 10:46:00,69.7,57.8,29.87,ENE,68,2.7,4.9,66,0.00,,,0.17,WUHU216HW,2013-05-09 14:46:00,
2013-05-09 10:51:00,69.3,57.4,29.87,ESE,113,1.1,4.9,66,0.00,,,0.17,WUHU216HW,2013-05-09 14:51:00,
2013-05-09 10:56:00,69.3,57.9,29.87,SSE,158,0.9,4.7,67,0.00,,,0.17,WUHU216HW,2013-05-09 14:56:00,
2013-05-09 11:01:00,70.4,58.1,29.86,NNW,338,2.5,3.4,65,0.00,,,0.17,WUHU216HW,2013-05-09 15:01:00,
2013-05-09 11:06:00,70.4,57.6,29.86,SSW,203,2.9,5.4,64,0.00,,,0.17,WUHU216HW,2013-05-09 15:06:00,
2013-05-09 11:11:00,70.7,56.7,29.86,SSW,203,2.5,5.4,61,0.00,,,0.17,WUHU216HW,2013-05-09 15:11:00,
2013-05-09 11:16:00,71.6,58.3,29.86,East,90,3.8,4.3,63,0.00,,,0.17,WUHU216HW,2013-05-09 15:16:00,
2013-05-09 11:21:00,72.4,58.1,29.86,NNE,23,2.7,4.7,61,0.00,,,0.17,WUHU216HW,2013-05-09 15:21:00,
2013-05-09 11:26:00,71.3,55.7,29.85,ENE,68,2.9,4.7,58,0.00,,,0.17,WUHU216HW,2013-05-09 15:26:00,
2013-05-09 11:31:00,70.9,55.9,29.85,North,0,2.5,4.9,59,0.00,,,0.17,WUHU216HW,2013-05-09 15:31:00,
2013-05-09 11:36:00,71.1,56.6,29.85,SW,225,0.4,4.9,60,0.00,,,0.17,WUHU216HW,2013-05-09 15:36:00,
2013-05-09 11:41:00,72.0,57.8,29.85,SSE,158,8.5,8.5,61,0.00,,,0.17,WUHU216HW,2013-05-09 15:41:00,
2013-05-09 11:46:00,73.4,57.2,29.85,East,90,2.9,8.5,57,0.00,,,0.17,WUHU216HW,2013-05-09 15:46:00,
2013-05-09 11:51:00,73.3,57.0,29.85,NE,45,6.5,8.5,57,0.00,,,0.17,WUHU216HW,2013-05-09 15:51:00,
2013-05-09 11:56:00,71.6,56.1,29.85,ENE,68,3.6,8.1,58,0.00,,,0.17,WUHU216HW,2013-05-09 15:56:00,
2013-05-09 12:01:00,71.1,56.1,29.85,NE,45,4.7,8.1,59,0.00,,,0.17,WUHU216HW,2013-05-09 16:01:00,
2013-05-09 12:06:00,70.6,55.6,29.85,NE,45,4.7,5.6,59,0.00,,,0.17,WUHU216HW,2013-05-09 16:06:00,
2013-05-09 12:10:00,70.9,56.9,29.84,ENE,68,4.0,5.6,61,0.00,,,0.17,WUHU216HW,2013-05-09 16:10:00,
2013-05-09 12:11:00,71.1,56.6,29.84,NE,45,6.9,6.9,60,0.00,,,0.17,WUHU216HW,2013-05-09 16:11:00,
2013-05-09 12:12:00,71.3,56.7,29.84,East,90,5.6,6.9,60,0.00,,,0.17,WUHU216HW,2013-05-09 16:12:00,
2013-05-09 12:22:00,72.2,56.5,29.84,East,90,7.4,7.4,58,0.00,,,0.17,WUHU216HW,2013-05-09 16:22:00,
2013-05-09 12:27:00,70.9,55.9,29.84,NNE,23,5.1,8.5,59,0.00,,,0.17,WUHU216HW,2013-05-09 16:27:00,
2013-05-09 12:32:00,69.8,56.3,29.84,ENE,68,5.8,8.5,62,0.00,,,0.17,WUHU216HW,2013-05-09 16:32:00,
2013-05-09 12:37:00,69.7,56.9,29.84,SE,135,6.3,6.3,64,0.00,,,0.17,WUHU216HW,2013-05-09 16:37:00,
2013-05-09 12:42:00,69.8,57.1,29.84,ESE,113,4.7,10.1,64,0.00,,,0.17,WUHU216HW,2013-05-09 16:42:00,
2013-05-09 12:47:00,70.2,57.1,29.84,SE,135,5.6,10.1,63,0.00,,,0.17,WUHU216HW,2013-05-09 16:47:00,
2013-05-09 12:52:00,70.9,57.7,29.84,ESE,113,0.9,6.5,63,0.00,,,0.17,WUHU216HW,2013-05-09 16:52:00,
2013-05-09 12:57:00,71.8,56.7,29.83,NNE,23,2.0,4.3,59,0.00,,,0.17,WUHU216HW,2013-05-09 16:57:00,
2013-05-09 13:02:00,71.6,55.1,29.83,ENE,68,0.9,2.7,56,0.00,,,0.17,WUHU216HW,2013-05-09 17:02:00,
2013-05-09 13:07:00,72.0,56.3,29.83,SE,135,2.2,2.9,58,0.00,,,0.17,WUHU216HW,2013-05-09 17:07:00,
2013-05-09 13:12:00,72.0,56.9,29.83,ESE,113,1.6,3.1,59,0.00,,,0.17,WUHU216HW,2013-05-09 17:12:00,
2013-05-09 13:17:00,71.8,57.3,29.83,South,180,2.5,3.4,60,0.00,,,0.17,WUHU216HW,2013-05-09 17:17:00,
2013-05-09 13:22:00,71.6,57.1,29.83,NW,315,0.0,3.4,60,0.00,,,0.17,WUHU216HW,2013-05-09 17:22:00,
2013-05-09 13:27:00,71.3,57.6,29.83,SSW,203,2.0,2.5,62,0.01,,,0.18,WUHU216HW,2013-05-09 17:27:00,
2013-05-09 13:32:00,70.6,57.0,29.83,ESE,113,2.5,3.1,62,0.01,,,0.18,WUHU216HW,2013-05-09 17:32:00,
2013-05-09 13:37:00,68.9,57.5,29.83,North,0,1.8,3.1,67,0.01,,,0.18,WUHU216HW,2013-05-09 17:37:00,
2013-05-09 13:43:00,67.1,57.8,29.83,NNE,23,2.5,2.9,72,0.01,,,0.18,WUHU216HW,2013-05-09 17:43:00,
2013-05-09 13:48:00,66.6,57.7,29.83,ESE,113,1.8,2.7,73,0.02,,,0.19,WUHU216HW,2013-05-09 17:48:00,
2013-05-09 13:53:00,65.9,57.3,29.83,ENE,68,3.4,3.4,74,0.03,,,0.20,WUHU216HW,2013-05-09 17:53:00,
2013-05-09 13:58:00,65.3,56.8,29.82,East,90,2.9,3.6,74,0.03,,,0.20,WUHU216HW,2013-05-09 17:58:00,
2013-05-09 14:03:00,65.3,56.8,29.82,SSE,158,2.0,3.6,74,0.03,,,0.20,WUHU216HW,2013-05-09 18:03:00,
2013-05-09 14:08:00,65.2,57.8,29.83,SSW,203,5.1,8.5,77,0.04,,,0.21,WUHU216HW,2013-05-09 18:08:00,
2013-05-09 14:13:00,64.6,57.3,29.83,SSW,203,2.0,8.5,77,0.07,,,0.24,WUHU216HW,2013-05-09 18:13:00,
2013-05-09 14:18:00,64.4,57.1,29.82,WSW,248,2.2,6.7,77,0.08,,,0.25,WUHU216HW,2013-05-09 18:18:00,
2013-05-09 14:23:00,64.4,57.4,29.82,WSW,248,1.8,3.1,78,0.07,,,0.25,WUHU216HW,2013-05-09 18:23:00,
2013-05-09 14:28:00,64.6,58.0,29.82,WSW,248,1.3,2.5,79,0.07,,,0.25,WUHU216HW,2013-05-09 18:28:00,
2013-05-09 14:33:00,64.6,57.3,29.82,WSW,248,2.5,3.6,77,0.07,,,0.25,WUHU216HW,2013-05-09 18:33:00,
2013-05-09 14:38:00,64.8,57.8,29.82,WSW,248,2.0,3.6,78,0.07,,,0.25,WUHU216HW,2013-05-09 18:38:00,
2013-05-09 14:43:00,65.2,58.2,29.82,WSW,248,1.6,3.6,78,0.06,,,0.25,WUHU216HW,2013-05-09 18:43:00,
2013-05-09 14:48:00,65.5,58.9,29.82,West,270,3.1,3.6,79,0.06,,,0.25,WUHU216HW,2013-05-09 18:48:00,
2013-05-09 14:53:00,66.2,59.6,29.81,SW,225,3.1,4.5,79,0.05,,,0.25,WUHU216HW,2013-05-09 18:53:00,
2013-05-09 14:58:00,66.6,58.8,29.81,West,270,4.0,4.5,76,0.05,,,0.25,WUHU216HW,2013-05-09 18:58:00,
2013-05-09 15:03:00,67.5,59.7,29.81,WSW,248,1.8,4.0,76,0.05,,,0.25,WUHU216HW,2013-05-09 19:03:00,
2013-05-09 15:08:00,68.2,60.0,29.81,SSE,158,1.1,4.0,75,0.01,,,0.25,WUHU216HW,2013-05-09 19:08:00,
2013-05-09 15:13:00,68.9,60.3,29.81,ENE,68,2.5,2.5,74,0.01,,,0.25,WUHU216HW,2013-05-09 19:13:00,
2013-05-09 15:18:00,68.8,59.4,29.80,NE,45,2.0,2.7,72,0.00,,,0.25,WUHU216HW,2013-05-09 19:18:00,
2013-05-09 15:23:00,67.1,59.0,29.80,ENE,68,3.4,4.0,75,0.00,,,0.25,WUHU216HW,2013-05-09 19:23:00,
2013-05-09 15:29:00,66.2,58.4,29.81,NE,45,3.4,4.0,76,0.00,,,0.25,WUHU216HW,2013-05-09 19:29:00,
2013-05-09 15:34:00,65.7,58.7,29.80,NNE,23,5.4,5.4,78,0.00,,,0.25,WUHU216HW,2013-05-09 19:34:00,
2013-05-09 15:39:00,65.2,58.9,29.80,NE,45,4.0,5.4,80,0.01,,,0.26,WUHU216HW,2013-05-09 19:39:00,
2013-05-09 15:44:00,65.0,58.7,29.80,ENE,68,3.6,5.6,80,0.01,,,0.26,WUHU216HW,2013-05-09 19:44:00,
2013-05-09 15:49:00,65.5,59.2,29.80,NE,45,1.1,5.6,80,0.01,,,0.26,WUHU216HW,2013-05-09 19:49:00,
2013-05-09 15:54:00,66.4,59.8,29.80,ENE,68,1.8,3.6,79,0.01,,,0.26,WUHU216HW,2013-05-09 19:54:00,
2013-05-09 15:59:00,66.6,58.1,29.80,NNE,23,5.4,8.1,74,0.01,,,0.26,WUHU216HW,2013-05-09 19:59:00,
2013-05-09 16:04:00,66.1,57.9,29.80,East,90,3.1,8.1,75,0.01,,,0.26,WUHU216HW,2013-05-09 20:04:00,
2013-05-09 16:09:00,66.2,58.4,29.81,ESE,113,2.7,5.1,76,0.01,,,0.26,WUHU216HW,2013-05-09 20:09:00,
2013-05-09 16:14:00,66.1,58.2,29.80,East,90,2.5,7.6,76,0.01,,,0.26,WUHU216HW,2013-05-09 20:14:00,
2013-05-09 16:19:00,65.7,57.5,29.80,East,90,3.6,7.6,75,0.01,,,0.26,WUHU216HW,2013-05-09 20:19:00,
2013-05-09 16:24:00,64.8,57.4,29.80,East,90,3.4,6.3,77,0.01,,,0.26,WUHU216HW,2013-05-09 20:24:00,
2013-05-09 16:29:00,64.4,57.8,29.80,East,90,1.6,4.9,79,0.02,,,0.28,WUHU216HW,2013-05-09 20:29:00,
2013-05-09 16:34:00,64.4,57.4,29.80,NNE,23,1.1,4.3,78,0.02,,,0.28,WUHU216HW,2013-05-09 20:34:00,
2013-05-09 16:39:00,64.3,58.7,29.80,NW,315,1.8,2.5,82,0.02,,,0.28,WUHU216HW,2013-05-09 20:39:00,
2013-05-09 16:44:00,64.1,58.2,29.80,NW,315,1.8,2.2,81,0.02,,,0.28,WUHU216HW,2013-05-09 20:44:00,
2013-05-09 16:49:00,64.1,57.8,29.80,West,270,1.1,2.2,80,0.02,,,0.28,WUHU216HW,2013-05-09 20:49:00,
2013-05-09 16:54:00,64.6,58.0,29.80,NNE,23,2.0,2.2,79,0.02,,,0.28,WUHU216HW,2013-05-09 20:54:00,
2013-05-09 16:59:00,64.8,57.8,29.80,ENE,68,2.0,2.9,78,0.02,,,0.28,WUHU216HW,2013-05-09 20:59:00,
2013-05-09 17:04:00,64.1,57.4,29.80,NE,45,1.8,5.4,79,0.02,,,0.28,WUHU216HW,2013-05-09 21:04:00,
2013-05-09 17:09:00,64.1,57.4,29.80,WSW,248,0.4,5.4,79,0.02,,,0.28,WUHU216HW,2013-05-09 21:09:00,
2013-05-09 17:14:00,63.9,57.6,29.80,North,0,1.8,3.4,80,0.02,,,0.28,WUHU216HW,2013-05-09 21:14:00,
2013-05-09 17:19:00,63.9,57.6,29.80,WSW,248,1.6,4.0,80,0.02,,,0.28,WUHU216HW,2013-05-09 21:19:00,
2013-05-09 17:24:00,64.3,57.6,29.80,West,270,0.9,4.0,79,0.01,,,0.28,WUHU216HW,2013-05-09 21:24:00,
2013-05-09 17:29:00,64.6,58.0,29.80,NE,45,0.4,2.9,79,0.00,,,0.28,WUHU216HW,2013-05-09 21:29:00,
2013-05-09 17:34:00,64.6,57.6,29.80,West,270,0.2,1.8,78,0.00,,,0.28,WUHU216HW,2013-05-09 21:34:00,
2013-05-09 17:39:00,64.6,57.6,29.80,NNE,23,1.8,1.8,78,0.00,,,0.28,WUHU216HW,2013-05-09 21:39:00,
2013-05-09 17:44:00,64.4,57.8,29.80,NNE,23,1.6,2.7,79,0.00,,,0.28,WUHU216HW,2013-05-09 21:44:00,
2013-05-09 17:49:00,63.9,57.2,29.80,NNE,23,2.7,2.7,79,0.00,,,0.28,WUHU216HW,2013-05-09 21:49:00,
2013-05-09 17:54:00,63.7,57.4,29.80,NNE,23,1.1,3.6,80,0.00,,,0.28,WUHU216HW,2013-05-09 21:54:00,
2013-05-09 17:59:00,63.7,57.4,29.80,NNW,338,1.8,3.6,80,0.00,,,0.28,WUHU216HW,2013-05-09 21:59:00,
2013-05-09 18:04:00,63.7,57.4,29.80,ESE,113,1.1,2.5,80,0.00,,,0.28,WUHU216HW,2013-05-09 22:04:00,
2013-05-09 18:09:00,64.4,57.8,29.80,SE,135,0.0,1.8,79,0.00,,,0.28,WUHU216HW,2013-05-09 22:09:00,
2013-05-09 18:14:00,64.3,58.0,29.80,NNW,338,0.7,2.0,80,0.00,,,0.28,WUHU216HW,2013-05-09 22:14:00,
2013-05-09 18:19:00,64.1,57.8,29.80,North,0,0.7,2.0,80,0.00,,,0.28,WUHU216HW,2013-05-09 22:19:00,
2013-05-09 18:24:00,63.7,57.8,29.80,ENE,68,1.8,2.5,81,0.00,,,0.28,WUHU216HW,2013-05-09 22:24:00,
2013-05-09 18:29:00,63.4,57.4,29.80,East,90,1.8,3.4,81,0.00,,,0.28,WUHU216HW,2013-05-09 22:29:00,
2013-05-09 18:34:00,63.4,57.4,29.80,North,0,0.9,3.4,81,0.00,,,0.28,WUHU216HW,2013-05-09 22:34:00,
2013-05-09 18:39:00,63.2,57.3,29.80,NNE,23,1.1,2.7,81,0.00,,,0.28,WUHU216HW,2013-05-09 22:39:00,
2013-05-09 18:44:00,63.2,57.6,29.81,NE,45,1.1,2.7,82,0.00,,,0.28,WUHU216HW,2013-05-09 22:44:00,
2013-05-09 18:49:00,63.0,57.1,29.81,ESE,113,2.7,2.7,81,0.00,,,0.28,WUHU216HW,2013-05-09 22:49:00,
2013-05-09 18:54:00,63.2,57.3,29.81,SSE,158,0.2,3.1,81,0.00,,,0.28,WUHU216HW,2013-05-09 22:54:00,
2013-05-09 18:59:00,63.4,57.4,29.81,NW,315,1.8,3.1,81,0.00,,,0.28,WUHU216HW,2013-05-09 22:59:00,
2013-05-09 19:04:00,62.8,57.5,29.81,North,0,0.0,1.8,83,0.00,,,0.28,WUHU216HW,2013-05-09 23:04:00,
2013-05-09 19:09:00,62.5,57.3,29.81,East,90,2.5,2.9,83,0.00,,,0.28,WUHU216HW,2013-05-09 23:09:00,
2013-05-09 19:14:00,62.5,56.9,29.82,ESE,113,1.3,3.6,82,0.00,,,0.28,WUHU216HW,2013-05-09 23:14:00,
2013-05-09 19:19:00,62.3,56.3,29.82,ENE,68,2.5,3.6,81,0.00,,,0.28,WUHU216HW,2013-05-09 23:19:00,
2013-05-09 19:24:00,61.7,55.9,29.82,ENE,68,1.6,5.1,81,0.01,,,0.30,WUHU216HW,2013-05-09 23:24:00,
2013-05-09 19:29:00,61.2,55.7,29.82,East,90,1.6,5.4,82,0.01,,,0.30,WUHU216HW,2013-05-09 23:29:00,
2013-05-09 19:34:00,60.8,55.4,29.83,ESE,113,1.6,5.4,82,0.02,,,0.30,WUHU216HW,2013-05-09 23:34:00,
2013-05-09 19:40:00,60.7,55.2,29.83,SE,135,0.4,2.2,82,0.03,,,0.31,WUHU216HW,2013-05-09 23:40:00,
2013-05-09 19:45:00,60.5,55.4,29.83,SE,135,0.4,2.2,83,0.05,,,0.33,WUHU216HW,2013-05-09 23:45:00,
2013-05-09 19:50:00,60.3,55.2,29.83,NNE,23,0.9,0.9,83,0.06,,,0.35,WUHU216HW,2013-05-09 23:50:00,
2013-05-09 19:55:00,59.9,55.1,29.83,North,0,0.0,1.8,84,0.07,,,0.35,WUHU216HW,2013-05-09 23:55:00,
2013-05-09 20:00:00,59.8,54.9,29.83,NNE,23,0.4,1.8,84,0.08,,,0.37,WUHU216HW,2013-05-10 00:00:00,
2013-05-09 20:05:00,59.6,54.7,29.83,NW,315,0.4,0.4,84,0.08,,,0.37,WUHU216HW,2013-05-10 00:05:00,
2013-05-09 20:10:00,59.4,54.9,29.83,West,270,0.0,0.9,85,0.09,,,0.37,WUHU216HW,2013-05-10 00:10:00,
2013-05-09 20:15:00,59.4,54.9,29.83,WNW,293,0.0,0.9,85,0.09,,,0.37,WUHU216HW,2013-05-10 00:15:00,
2013-05-09 20:20:00,59.2,54.7,29.83,WNW,293,0.0,0.0,85,0.10,,,0.39,WUHU216HW,2013-05-10 00:20:00,
2013-05-09 20:25:00,59.0,54.5,29.83,WNW,293,0.0,0.0,85,0.09,,,0.39,WUHU216HW,2013-05-10 00:25:00,
2013-05-09 20:30:00,58.9,54.7,29.83,WNW,293,0.0,0.0,86,0.08,,,0.39,WUHU216HW,2013-05-10 00:30:00,
2013-05-09 20:35:00,58.7,54.6,29.84,WNW,293,0.0,0.0,86,0.09,,,0.40,WUHU216HW,2013-05-10 00:35:00,
2013-05-09 20:40:00,58.7,54.8,29.84,North,0,0.4,1.1,87,0.09,,,0.41,WUHU216HW,2013-05-10 00:40:00,
2013-05-09 20:45:00,58.5,54.6,29.84,North,0,0.0,1.1,87,0.06,,,0.41,WUHU216HW,2013-05-10 00:45:00,
2013-05-09 20:50:00,58.5,54.6,29.84,North,0,0.0,0.4,87,0.06,,,0.41,WUHU216HW,2013-05-10 00:50:00,
2013-05-09 20:55:00,58.5,54.6,29.84,East,90,0.0,0.0,87,0.05,,,0.41,WUHU216HW,2013-05-10 00:55:00,
2013-05-09 21:00:00,58.5,54.6,29.85,ESE,113,0.2,0.2,87,0.04,,,0.41,WUHU216HW,2013-05-10 01:00:00,
2013-05-09 21:05:00,58.3,54.5,29.84,East,90,0.7,1.1,87,0.04,,,0.42,WUHU216HW,2013-05-10 01:05:00,
2013-05-09 21:10:00,58.3,54.8,29.84,NNE,23,0.2,1.1,88,0.04,,,0.42,WUHU216HW,2013-05-10 01:10:00,
2013-05-09 21:15:00,58.1,54.3,29.85,North,0,0.0,0.9,87,0.04,,,0.42,WUHU216HW,2013-05-10 01:15:00,
2013-05-09 21:20:00,58.0,54.1,29.85,NW,315,0.4,0.7,87,0.03,,,0.42,WUHU216HW,2013-05-10 01:20:00,
2013-05-09 21:25:00,58.0,54.1,29.85,NW,315,0.0,0.7,87,0.03,,,0.42,WUHU216HW,2013-05-10 01:25:00,
2013-05-09 21:30:00,58.0,54.1,29.85,NW,315,0.0,0.4,87,0.03,,,0.43,WUHU216HW,2013-05-10 01:30:00,
2013-05-09 21:35:00,58.0,54.5,29.85,NW,315,0.0,0.0,88,0.03,,,0.43,WUHU216HW,2013-05-10 01:35:00,
2013-05-09 21:40:00,58.0,54.1,29.85,NW,315,0.0,0.0,87,0.02,,,0.43,WUHU216HW,2013-05-10 01:40:00,
2013-05-09 21:45:00,58.0,54.1,29.85,NW,315,0.0,0.0,87,0.02,,,0.43,WUHU216HW,2013-05-10 01:45:00,
2013-05-09 21:50:00,58.0,54.1,29.85,NW,315,0.0,0.0,87,0.02,,,0.43,WUHU216HW,2013-05-10 01:50:00,
2013-05-09 21:55:00,57.8,53.9,29.85,NW,315,0.0,0.0,87,0.02,,,0.43,WUHU216HW,2013-05-10 01:55:00,
2013-05-09 22:00:00,57.8,53.9,29.85,NW,315,0.0,0.0,87,0.03,,,0.44,WUHU216HW,2013-05-10 02:00:00,
2013-05-09 22:05:00,57.6,53.7,29.85,NNE,23,0.0,0.0,87,0.02,,,0.44,WUHU216HW,2013-05-10 02:05:00,
2013-05-09 22:10:00,57.6,54.1,29.85,East,90,0.0,0.0,88,0.02,,,0.44,WUHU216HW,2013-05-10 02:10:00,
2013-05-09 22:15:00,57.6,54.1,29.85,NNE,23,0.0,0.4,88,0.02,,,0.44,WUHU216HW,2013-05-10 02:15:00,
2013-05-09 22:20:00,57.6,54.1,29.85,NNE,23,0.0,0.4,88,0.02,,,0.44,WUHU216HW,2013-05-10 02:20:00,
2013-05-09 22:25:00,57.6,54.1,29.85,NNE,23,0.0,0.0,88,0.03,,,0.44,WUHU216HW,2013-05-10 02:25:00,
2013-05-09 22:30:00,57.4,53.9,29.85,NNW,338,0.0,0.0,88,0.02,,,0.44,WUHU216HW,2013-05-10 02:30:00,
2013-05-09 22:35:00,57.2,53.7,29.84,NNW,338,0.0,0.0,88,0.02,,,0.44,WUHU216HW,2013-05-10 02:35:00,
2013-05-09 22:40:00,57.2,53.7,29.84,North,0,0.0,0.0,88,0.02,,,0.44,WUHU216HW,2013-05-10 02:40:00,
2013-05-09 22:45:00,56.9,53.4,29.84,North,0,0.0,0.0,88,0.02,,,0.44,WUHU216HW,2013-05-10 02:45:00,
2013-05-09 22:50:00,56.9,53.4,29.84,North,0,0.0,0.0,88,0.02,,,0.44,WUHU216HW,2013-05-10 02:50:00,
2013-05-09 22:55:00,56.5,53.0,29.84,North,0,0.0,0.0,88,0.02,,,0.44,WUHU216HW,2013-05-10 02:55:00,
2013-05-09 23:00:00,56.5,53.3,29.84,North,0,0.0,0.0,89,0.01,,,0.44,WUHU216HW,2013-05-10 03:00:00,
2013-05-09 23:05:00,56.5,53.3,29.84,North,0,0.0,0.0,89,0.01,,,0.44,WUHU216HW,2013-05-10 03:05:00,
2013-05-09 23:10:00,56.5,53.3,29.83,ENE,68,0.7,0.7,89,0.01,,,0.44,WUHU216HW,2013-05-10 03:10:00,
2013-05-09 23:15:00,56.5,53.3,29.83,NNE,23,0.0,0.7,89,0.01,,,0.44,WUHU216HW,2013-05-10 03:15:00,
2013-05-09 23:20:00,56.5,53.3,29.83,NNE,23,0.0,0.7,89,0.00,,,0.44,WUHU216HW,2013-05-10 03:20:00,
2013-05-09 23:25:00,56.5,53.3,29.83,NE,45,0.0,0.0,89,0.00,,,0.44,WUHU216HW,2013-05-10 03:25:00,
2013-05-09 23:30:00,56.5,53.3,29.83,WNW,293,0.0,0.0,89,0.00,,,0.44,WUHU216HW,2013-05-10 03:30:00,
2013-05-09 23:35:00,56.5,53.3,29.83,West,270,0.4,1.1,89,0.00,,,0.44,WUHU216HW,2013-05-10 03:35:00,
2013-05-09 23:40:00,56.5,53.3,29.83,West,270,0.7,1.1,89,0.00,,,0.44,WUHU216HW,2013-05-10 03:40:00,
2013-05-09 23:45:00,56.5,53.3,29.83,WSW,248,0.4,1.1,89,0.00,,,0.44,WUHU216HW,2013-05-10 03:45:00,
2013-05-09 23:50:00,56.5,53.3,29.83,WSW,248,0.0,1.1,89,0.00,,,0.44,WUHU216HW,2013-05-10 03:50:00,
2013-05-09 23:55:00,56.5,53.3,29.83,WSW,248,0.0,0.7,89,0.00,,,0.44,WUHU216HW,2013-05-10 03:55:00,